sensor_id;sensor_type;location;lat;lon;timestamp;pressure;altitude;pressure_sealevel;temperature;humidity
59987;BME280;46181;51.498;5.392;2023-01-25T00:02:04;103642;;;6.47;56.66504
59987;BME280;46181;51.498;5.392;2023-01-25T00:06:33;103634.7;;;6.52;56.57129
59987;BME280;46181;51.498;5.392;2023-01-25T00:11:03;103629.4;;;6.52;56.61523
59987;BME280;46181;51.498;5.392;2023-01-25T00:15:33;103629.1;;;6.57;56.59961
59987;BME280;46181;51.498;5.392;2023-01-25T00:20:03;103630;;;6.54;56.54004
59987;BME280;46181;51.498;5.392;2023-01-25T00:24:33;103624;;;6.46;56.47461
59987;BME280;46181;51.498;5.392;2023-01-25T00:29:03;103628;;;6.43;56.59375
59987;BME280;46181;51.498;5.392;2023-01-25T00:33:49;103630.5;;;6.23;56.74512
59987;BME280;46181;51.498;5.392;2023-01-25T00:38:05;103630;;;6.29;56.81934
59987;BME280;46181;51.498;5.392;2023-01-25T00:42:33;103621.9;;;6.36;56.8623
59987;BME280;46181;51.498;5.392;2023-01-25T00:47:03;103617.6;;;6.38;56.76367
59987;BME280;46181;51.498;5.392;2023-01-25T00:51:33;103616.3;;;6.4;56.72266
59987;BME280;46181;51.498;5.392;2023-01-25T00:56:03;103618;;;6.4;56.8125
59987;BME280;46181;51.498;5.392;2023-01-25T01:00:33;103620.9;;;6.44;56.78418
59987;BME280;46181;51.498;5.392;2023-01-25T01:05:03;103614.5;;;6.47;56.82129
59987;BME280;46181;51.498;5.392;2023-01-25T01:09:33;103604.7;;;6.38;56.6875
59987;BME280;46181;51.498;5.392;2023-01-25T01:14:04;103599.9;;;6.43;56.87109
59987;BME280;46181;51.498;5.392;2023-01-25T01:18:36;103605.8;;;6.5;56.82422
59987;BME280;46181;51.498;5.392;2023-01-25T01:23:03;103604.4;;;6.45;56.72852
59987;BME280;46181;51.498;5.392;2023-01-25T01:27:33;103602.8;;;6.47;56.85547
59987;BME280;46181;51.498;5.392;2023-01-25T01:32:03;103602.4;;;6.44;56.76074
59987;BME280;46181;51.498;5.392;2023-01-25T01:36:34;103604.6;;;6.36;56.69629
59987;BME280;46181;51.498;5.392;2023-01-25T01:41:03;103603.2;;;6.24;56.67969
59987;BME280;46181;51.498;5.392;2023-01-25T01:45:52;103606.2;;;6.17;57.10547
59987;BME280;46181;51.498;5.392;2023-01-25T01:50:19;103606;;;6.21;57.13281
59987;BME280;46181;51.498;5.392;2023-01-25T01:54:36;103606.5;;;6.22;56.9668
59987;BME280;46181;51.498;5.392;2023-01-25T01:59:04;103610.9;;;6.26;57.02734
59987;BME280;46181;51.498;5.392;2023-01-25T02:03:34;103605.7;;;6.25;57.02637
59987;BME280;46181;51.498;5.392;2023-01-25T02:08:03;103601.3;;;6.3;56.87598
59987;BME280;46181;51.498;5.392;2023-01-25T02:12:34;103602.1;;;6.3;57.05566
59987;BME280;46181;51.498;5.392;2023-01-25T02:17:03;103604.1;;;6.35;57.06152
59987;BME280;46181;51.498;5.392;2023-01-25T02:21:36;103595.7;;;6.3;56.83301
59987;BME280;46181;51.498;5.392;2023-01-25T02:26:04;103598;;;6.32;56.95801
59987;BME280;46181;51.498;5.392;2023-01-25T02:30:33;103589.6;;;6.3;56.97656
59987;BME280;46181;51.498;5.392;2023-01-25T02:35:03;103589.4;;;6.35;57.05078
59987;BME280;46181;51.498;5.392;2023-01-25T02:39:35;103577.1;;;6.36;56.97461
59987;BME280;46181;51.498;5.392;2023-01-25T02:44:04;103579.4;;;6.34;56.84863
59987;BME280;46181;51.498;5.392;2023-01-25T02:48:33;103565.4;;;6.3;56.89844
59987;BME280;46181;51.498;5.392;2023-01-25T02:53:03;103566.6;;;6.31;57.01172
59987;BME280;46181;51.498;5.392;2023-01-25T02:57:33;103570;;;6.24;56.83496
59987;BME280;46181;51.498;5.392;2023-01-25T03:02:03;103563.4;;;6.15;56.8916
59987;BME280;46181;51.498;5.392;2023-01-25T03:06:34;103563.5;;;6.09;56.94922
59987;BME280;46181;51.498;5.392;2023-01-25T03:11:04;103562;;;6.14;57.14453
59987;BME280;46181;51.498;5.392;2023-01-25T03:15:33;103561.4;;;6.21;57.22168
59987;BME280;46181;51.498;5.392;2023-01-25T03:20:03;103557.3;;;6.28;57.17578
59987;BME280;46181;51.498;5.392;2023-01-25T03:24:33;103552.7;;;6.23;57.0459
59987;BME280;46181;51.498;5.392;2023-01-25T03:29:03;103549.3;;;6.24;57.14746
59987;BME280;46181;51.498;5.392;2023-01-25T03:33:33;103536.3;;;6.27;57.11816
59987;BME280;46181;51.498;5.392;2023-01-25T03:38:03;103528.4;;;6.26;57.10645
59987;BME280;46181;51.498;5.392;2023-01-25T03:42:33;103525;;;6.22;57.10059
59987;BME280;46181;51.498;5.392;2023-01-25T03:47:03;103527.5;;;6.18;56.84961
59987;BME280;46181;51.498;5.392;2023-01-25T03:51:33;103524.4;;;6.11;56.97461
59987;BME280;46181;51.498;5.392;2023-01-25T03:56:05;103532.1;;;6.14;57.09961
59987;BME280;46181;51.498;5.392;2023-01-25T04:00:33;103535.9;;;6.11;56.95215
59987;BME280;46181;51.498;5.392;2023-01-25T04:05:04;103537;;;6.09;57.06055
59987;BME280;46181;51.498;5.392;2023-01-25T04:09:33;103530.7;;;6.08;57.02734
59987;BME280;46181;51.498;5.392;2023-01-25T04:14:03;103528.2;;;6.08;57.0498
59987;BME280;46181;51.498;5.392;2023-01-25T04:18:33;103525;;;6.07;57.10254
59987;BME280;46181;51.498;5.392;2023-01-25T04:23:03;103519.5;;;6.11;57.13086
59987;BME280;46181;51.498;5.392;2023-01-25T04:27:33;103516.8;;;6.15;57.03516
59987;BME280;46181;51.498;5.392;2023-01-25T04:32:04;103518.6;;;6.12;56.86328
59987;BME280;46181;51.498;5.392;2023-01-25T04:36:33;103512.1;;;6.08;56.93652
59987;BME280;46181;51.498;5.392;2023-01-25T04:41:03;103514.9;;;6.06;56.95703
59987;BME280;46181;51.498;5.392;2023-01-25T04:45:34;103510.5;;;6.07;56.94629
59987;BME280;46181;51.498;5.392;2023-01-25T04:50:03;103508.6;;;6.03;56.96387
59987;BME280;46181;51.498;5.392;2023-01-25T04:54:33;103503.8;;;6.05;57.02246
59987;BME280;46181;51.498;5.392;2023-01-25T04:59:03;103505.4;;;6.03;56.8623
59987;BME280;46181;51.498;5.392;2023-01-25T05:03:33;103497.9;;;5.99;56.94629
59987;BME280;46181;51.498;5.392;2023-01-25T05:08:03;103485.9;;;5.99;56.95703
59987;BME280;46181;51.498;5.392;2023-01-25T05:12:33;103485.9;;;5.98;56.92383
59987;BME280;46181;51.498;5.392;2023-01-25T05:17:03;103477.8;;;6.01;57.03906
59987;BME280;46181;51.498;5.392;2023-01-25T05:21:33;103476.1;;;6.03;56.99707
59987;BME280;46181;51.498;5.392;2023-01-25T05:26:04;103483.2;;;6.06;56.97852
59987;BME280;46181;51.498;5.392;2023-01-25T05:30:34;103472.3;;;6.07;56.95801
59987;BME280;46181;51.498;5.392;2023-01-25T05:35:03;103473.3;;;6.13;56.93262
59987;BME280;46181;51.498;5.392;2023-01-25T05:39:33;103471;;;6.11;56.9082
59987;BME280;46181;51.498;5.392;2023-01-25T05:44:03;103472.7;;;6.11;56.97461
59987;BME280;46181;51.498;5.392;2023-01-25T05:48:33;103466.7;;;6.08;56.94922
59987;BME280;46181;51.498;5.392;2023-01-25T05:53:03;103471.1;;;6.1;56.93945
59987;BME280;46181;51.498;5.392;2023-01-25T05:57:33;103464.6;;;6.05;56.93359
59987;BME280;46181;51.498;5.392;2023-01-25T06:02:04;103463.5;;;6.04;56.89746
59987;BME280;46181;51.498;5.392;2023-01-25T06:06:33;103469.7;;;6.01;56.97168
59987;BME280;46181;51.498;5.392;2023-01-25T06:11:08;103472.5;;;5.99;56.9248
59987;BME280;46181;51.498;5.392;2023-01-25T06:15:33;103472.4;;;5.92;56.9043
59987;BME280;46181;51.498;5.392;2023-01-25T06:20:04;103470.8;;;5.9;57.00293
59987;BME280;46181;51.498;5.392;2023-01-25T06:24:33;103468.2;;;5.92;57.02637
59987;BME280;46181;51.498;5.392;2023-01-25T06:29:03;103468.4;;;5.89;56.96875
59987;BME280;46181;51.498;5.392;2023-01-25T06:33:33;103470.3;;;5.84;56.99512
59987;BME280;46181;51.498;5.392;2023-01-25T06:38:04;103464.8;;;5.84;57.03809
59987;BME280;46181;51.498;5.392;2023-01-25T06:42:35;103468.3;;;5.83;56.98145
59987;BME280;46181;51.498;5.392;2023-01-25T06:47:03;103465.9;;;5.8;56.9668
59987;BME280;46181;51.498;5.392;2023-01-25T06:51:33;103465.2;;;5.77;56.97461
59987;BME280;46181;51.498;5.392;2023-01-25T06:56:10;103463.3;;;5.74;57.23633
59987;BME280;46181;51.498;5.392;2023-01-25T07:00:33;103465.5;;;5.83;57.15918
59987;BME280;46181;51.498;5.392;2023-01-25T07:05:04;103462.8;;;5.81;57.05664
59987;BME280;46181;51.498;5.392;2023-01-25T07:09:33;103455.2;;;5.82;57.08008
59987;BME280;46181;51.498;5.392;2023-01-25T07:14:03;103458.9;;;5.86;57.09766
59987;BME280;46181;51.498;5.392;2023-01-25T07:18:34;103462.1;;;5.78;56.93066
59987;BME280;46181;51.498;5.392;2023-01-25T07:23:03;103463.5;;;5.73;57.00195
59987;BME280;46181;51.498;5.392;2023-01-25T07:27:35;103468;;;5.74;57.02539
59987;BME280;46181;51.498;5.392;2023-01-25T07:32:03;103456.9;;;5.73;57.11328
59987;BME280;46181;51.498;5.392;2023-01-25T07:36:33;103454.7;;;5.73;57.03516
59987;BME280;46181;51.498;5.392;2023-01-25T07:41:04;103450.9;;;5.7;57.04297
59987;BME280;46181;51.498;5.392;2023-01-25T07:45:33;103447.4;;;5.71;57.13281
59987;BME280;46181;51.498;5.392;2023-01-25T07:50:04;103443.5;;;5.73;57.10156
59987;BME280;46181;51.498;5.392;2023-01-25T07:54:33;103443.5;;;5.74;57.05859
59987;BME280;46181;51.498;5.392;2023-01-25T07:59:04;103446.8;;;5.76;57.09473
59987;BME280;46181;51.498;5.392;2023-01-25T08:03:33;103451;;;5.76;56.94922
59987;BME280;46181;51.498;5.392;2023-01-25T08:08:04;103451.3;;;5.78;57.08691
59987;BME280;46181;51.498;5.392;2023-01-25T08:12:33;103442.5;;;5.81;57.0791
59987;BME280;46181;51.498;5.392;2023-01-25T08:17:03;103439.3;;;5.84;57.06152
59987;BME280;46181;51.498;5.392;2023-01-25T08:21:34;103437;;;5.87;57.05566
59987;BME280;46181;51.498;5.392;2023-01-25T08:26:04;103440.9;;;5.87;56.98828
59987;BME280;46181;51.498;5.392;2023-01-25T08:30:33;103430.1;;;5.86;56.86328
59987;BME280;46181;51.498;5.392;2023-01-25T08:35:04;103428.4;;;5.82;56.87988
59987;BME280;46181;51.498;5.392;2023-01-25T08:39:33;103428.7;;;5.84;56.98242
59987;BME280;46181;51.498;5.392;2023-01-25T08:44:04;103427.5;;;5.84;56.99512
59987;BME280;46181;51.498;5.392;2023-01-25T08:48:34;103435.2;;;5.87;56.97656
59987;BME280;46181;51.498;5.392;2023-01-25T08:53:03;103438.3;;;5.83;56.80273
59987;BME280;46181;51.498;5.392;2023-01-25T08:57:33;103431.3;;;5.78;56.91992
59987;BME280;46181;51.498;5.392;2023-01-25T09:02:03;103431.5;;;5.82;56.95801
59987;BME280;46181;51.498;5.392;2023-01-25T09:06:33;103422.4;;;5.84;56.92676
59987;BME280;46181;51.498;5.392;2023-01-25T09:11:08;103411.8;;;5.87;56.99805
59987;BME280;46181;51.498;5.392;2023-01-25T09:15:33;103411.3;;;5.92;56.81641
59987;BME280;46181;51.498;5.392;2023-01-25T09:20:04;103409.3;;;5.95;56.85352
59987;BME280;46181;51.498;5.392;2023-01-25T09:24:33;103405.6;;;5.99;56.82324
59987;BME280;46181;51.498;5.392;2023-01-25T09:29:04;103402.4;;;6.03;56.78516
59987;BME280;46181;51.498;5.392;2023-01-25T09:38:03;103401.6;;;6.08;56.81543
59987;BME280;46181;51.498;5.392;2023-01-25T09:43:01;103402.6;;;5.98;56.99023
59987;BME280;46181;51.498;5.392;2023-01-25T09:47:07;103396;;;6.06;56.83398
59987;BME280;46181;51.498;5.392;2023-01-25T09:51:38;103401;;;6.07;56.75684
59987;BME280;46181;51.498;5.392;2023-01-25T09:56:07;103396.3;;;6.03;56.62988
59987;BME280;46181;51.498;5.392;2023-01-25T10:00:37;103398;;;6.01;56.68164
59987;BME280;46181;51.498;5.392;2023-01-25T10:05:06;103396.1;;;6.07;56.6123
59987;BME280;46181;51.498;5.392;2023-01-25T10:09:41;103396.3;;;6.03;56.53906
59987;BME280;46181;51.498;5.392;2023-01-25T10:14:06;103389;;;6.07;56.58984
59987;BME280;46181;51.498;5.392;2023-01-25T10:18:36;103378.8;;;6.07;56.62305
59987;BME280;46181;51.498;5.392;2023-01-25T10:27:41;103377.7;;;6.14;56.7207
59987;BME280;46181;51.498;5.392;2023-01-25T10:32:12;103373.4;;;6.23;56.58789
59987;BME280;46181;51.498;5.392;2023-01-25T10:36:37;103366.6;;;6.25;56.42285
59987;BME280;46181;51.498;5.392;2023-01-25T10:41:06;103356.4;;;6.24;56.37793
59987;BME280;46181;51.498;5.392;2023-01-25T10:45:33;103343.2;;;6.25;56.32227
59987;BME280;46181;51.498;5.392;2023-01-25T10:50:04;103332.1;;;6.26;56.41504
59987;BME280;46181;51.498;5.392;2023-01-25T10:54:33;103319.4;;;6.3;56.39648
59987;BME280;46181;51.498;5.392;2023-01-25T10:59:23;103312.3;;;6.21;56.44141
59987;BME280;46181;51.498;5.392;2023-01-25T11:03:42;103306.5;;;6.26;56.42578
59987;BME280;46181;51.498;5.392;2023-01-25T11:08:31;103301.6;;;6.2;56.5293
59987;BME280;46181;51.498;5.392;2023-01-25T11:12:33;103288.1;;;6.33;56.16699
59987;BME280;46181;51.498;5.392;2023-01-25T11:17:23;103279;;;6.26;56.30273
59987;BME280;46181;51.498;5.392;2023-01-25T11:21:34;103276.8;;;6.33;56.12207
59987;BME280;46181;51.498;5.392;2023-01-25T11:26:18;103267.1;;;6.24;56.16602
59987;BME280;46181;51.498;5.392;2023-01-25T11:30:34;103262.2;;;6.31;56.05176
59987;BME280;46181;51.498;5.392;2023-01-25T11:35:04;103244.3;;;6.33;56.02246
59987;BME280;46181;51.498;5.392;2023-01-25T11:39:44;103235.1;;;6.28;56.12793
59987;BME280;46181;51.498;5.392;2023-01-25T11:53:27;103206.6;;;6.35;55.93555
59987;BME280;46181;51.498;5.392;2023-01-25T11:57:49;103206;;;6.22;55.90723
59987;BME280;46181;51.498;5.392;2023-01-25T12:02:18;103190.9;;;6.18;55.91406
59987;BME280;46181;51.498;5.392;2023-01-25T12:06:41;103176.6;;;6.24;55.9209
59987;BME280;46181;51.498;5.392;2023-01-25T12:11:11;103161.6;;;6.25;55.78809
59987;BME280;46181;51.498;5.392;2023-01-25T12:15:46;103156.9;;;6.17;55.78906
59987;BME280;46181;51.498;5.392;2023-01-25T12:20:21;103143;;;6.17;55.80176
59987;BME280;46181;51.498;5.392;2023-01-25T12:24:45;103134.1;;;6.18;55.8584
59987;BME280;46181;51.498;5.392;2023-01-25T12:29:10;103117.7;;;6.25;55.83301
59987;BME280;46181;51.498;5.392;2023-01-25T12:33:38;103111.9;;;6.24;55.84277
59987;BME280;46181;51.498;5.392;2023-01-25T12:38:08;103105.1;;;6.27;55.99121
59987;BME280;46181;51.498;5.392;2023-01-25T12:42:39;103085.3;;;6.24;55.70898
59987;BME280;46181;51.498;5.392;2023-01-25T12:47:10;103076;;;6.19;55.81445
59987;BME280;46181;51.498;5.392;2023-01-25T12:51:37;103066.9;;;6.24;55.73145
59987;BME280;46181;51.498;5.392;2023-01-25T12:56:06;103059.7;;;6.26;55.72363
59987;BME280;46181;51.498;5.392;2023-01-25T13:00:40;103053.4;;;6.23;55.62988
59987;BME280;46181;51.498;5.392;2023-01-25T13:05:13;103042.2;;;6.25;55.69824
59987;BME280;46181;51.498;5.392;2023-01-25T13:09:38;103027.1;;;6.28;55.6709
59987;BME280;46181;51.498;5.392;2023-01-25T13:14:34;103031.2;;;6.16;55.74316
59987;BME280;46181;51.498;5.392;2023-01-25T13:18:49;103027.7;;;6.12;55.81543
59987;BME280;46181;51.498;5.392;2023-01-25T13:23:12;103021.5;;;6.13;55.56152
59987;BME280;46181;51.498;5.392;2023-01-25T13:27:37;103010.9;;;6.08;55.65527
59987;BME280;46181;51.498;5.392;2023-01-25T13:32:04;103010.7;;;6.06;55.71973
59987;BME280;46181;51.498;5.392;2023-01-25T13:36:52;103008;;;5.99;56.06641
59987;BME280;46181;51.498;5.392;2023-01-25T13:41:21;102993.3;;;6.02;56.19336
59987;BME280;46181;51.498;5.392;2023-01-25T13:45:34;102979;;;6.17;55.99023
59987;BME280;46181;51.498;5.392;2023-01-25T13:50:07;102979.7;;;6.2;55.85938
59987;BME280;46181;51.498;5.392;2023-01-25T13:54:35;102978.3;;;6.21;55.69434
59987;BME280;46181;51.498;5.392;2023-01-25T13:59:04;102968.9;;;6.21;55.67188
59987;BME280;46181;51.498;5.392;2023-01-25T14:03:39;102967.8;;;6.19;55.75879
59987;BME280;46181;51.498;5.392;2023-01-25T14:08:05;102960.7;;;6.19;55.75879
59987;BME280;46181;51.498;5.392;2023-01-25T14:12:39;102959.2;;;6.17;55.87793
59987;BME280;46181;51.498;5.392;2023-01-25T14:17:21;102968;;;6.06;55.99805
59987;BME280;46181;51.498;5.392;2023-01-25T14:21:34;102974.7;;;6.11;55.62598
59987;BME280;46181;51.498;5.392;2023-01-25T14:26:11;102972.3;;;6.05;55.74023
59987;BME280;46181;51.498;5.392;2023-01-25T14:30:35;102970.8;;;6.04;55.77246
59987;BME280;46181;51.498;5.392;2023-01-25T14:39:37;102968.8;;;5.97;55.88477
59987;BME280;46181;51.498;5.392;2023-01-25T14:44:10;102956.8;;;5.99;55.90918
59987;BME280;46181;51.498;5.392;2023-01-25T14:48:50;102949;;;5.87;56.0752
59987;BME280;46181;51.498;5.392;2023-01-25T14:53:14;102940.5;;;5.92;56.06934
59987;BME280;46181;51.498;5.392;2023-01-25T14:57:40;102938.7;;;5.91;56.05762
59987;BME280;46181;51.498;5.392;2023-01-25T15:02:11;102942.3;;;5.9;55.93359
59987;BME280;46181;51.498;5.392;2023-01-25T15:06:34;102938.4;;;5.9;56.05469
59987;BME280;46181;51.498;5.392;2023-01-25T15:11:04;102924.9;;;5.86;55.99316
59987;BME280;46181;51.498;5.392;2023-01-25T15:15:34;102926.8;;;5.83;56.0459
59987;BME280;46181;51.498;5.392;2023-01-25T15:20:04;102921.7;;;5.82;56.11133
59987;BME280;46181;51.498;5.392;2023-01-25T15:24:34;102922.4;;;5.81;56.19922
59987;BME280;46181;51.498;5.392;2023-01-25T15:29:09;102925.6;;;5.78;56.22949
59987;BME280;46181;51.498;5.392;2023-01-25T15:33:34;102919;;;5.75;56.23535
59987;BME280;46181;51.498;5.392;2023-01-25T15:38:04;102914.2;;;5.75;56.3252
59987;BME280;46181;51.498;5.392;2023-01-25T15:42:34;102904.8;;;5.74;56.36914
59987;BME280;46181;51.498;5.392;2023-01-25T15:47:04;102913.1;;;5.74;56.39063
59987;BME280;46181;51.498;5.392;2023-01-25T15:51:34;102910.2;;;5.7;56.36328
59987;BME280;46181;51.498;5.392;2023-01-25T15:56:07;102909.3;;;5.64;56.37891
59987;BME280;46181;51.498;5.392;2023-01-25T16:00:34;102904.3;;;5.58;56.28125
59987;BME280;46181;51.498;5.392;2023-01-25T16:05:04;102905.5;;;5.55;56.3877
59987;BME280;46181;51.498;5.392;2023-01-25T16:09:34;102903.7;;;5.51;56.52637
59987;BME280;46181;51.498;5.392;2023-01-25T16:14:04;102900.9;;;5.51;56.52832
59987;BME280;46181;51.498;5.392;2023-01-25T16:18:34;102900.5;;;5.45;56.47461
59987;BME280;46181;51.498;5.392;2023-01-25T16:23:04;102901.2;;;5.41;56.62598
59987;BME280;46181;51.498;5.392;2023-01-25T16:27:34;102899.5;;;5.42;56.70508
59987;BME280;46181;51.498;5.392;2023-01-25T16:32:04;102900.7;;;5.41;56.65918
59987;BME280;46181;51.498;5.392;2023-01-25T16:36:34;102901.4;;;5.38;56.68848
59987;BME280;46181;51.498;5.392;2023-01-25T16:41:04;102910.2;;;5.4;56.82422
59987;BME280;46181;51.498;5.392;2023-01-25T16:45:34;102915.8;;;5.4;56.70215
59987;BME280;46181;51.498;5.392;2023-01-25T16:50:07;102916.3;;;5.31;56.78027
59987;BME280;46181;51.498;5.392;2023-01-25T16:54:34;102926.3;;;5.3;56.87793
59987;BME280;46181;51.498;5.392;2023-01-25T16:59:05;102926;;;5.28;56.94336
59987;BME280;46181;51.498;5.392;2023-01-25T17:03:34;102915.1;;;5.31;56.95801
59987;BME280;46181;51.498;5.392;2023-01-25T17:08:04;102910;;;5.3;56.97949
59987;BME280;46181;51.498;5.392;2023-01-25T17:12:34;102900.8;;;5.29;56.97656
59987;BME280;46181;51.498;5.392;2023-01-25T17:17:04;102900.2;;;5.26;57.07324
59987;BME280;46181;51.498;5.392;2023-01-25T17:21:34;102888.4;;;5.22;56.92383
59987;BME280;46181;51.498;5.392;2023-01-25T17:26:05;102879.1;;;5.11;56.9209
59987;BME280;46181;51.498;5.392;2023-01-25T17:30:34;102886.9;;;5.06;57.04688
59987;BME280;46181;51.498;5.392;2023-01-25T17:35:04;102864.3;;;5.02;57.25195
59987;BME280;46181;51.498;5.392;2023-01-25T17:39:34;102846.3;;;5.07;57.2832
59987;BME280;46181;51.498;5.392;2023-01-25T17:44:04;102845.8;;;5.09;57.20605
59987;BME280;46181;51.498;5.392;2023-01-25T17:48:34;102821.7;;;5.08;57.29492
59987;BME280;46181;51.498;5.392;2023-01-25T17:53:04;102809.2;;;5.15;57.33691
59987;BME280;46181;51.498;5.392;2023-01-25T17:57:34;102794.8;;;5.2;57.32031
59987;BME280;46181;51.498;5.392;2023-01-25T18:02:04;102784.3;;;5.19;57.27539
59987;BME280;46181;51.498;5.392;2023-01-25T18:06:35;102780.5;;;5.24;57.27148
59987;BME280;46181;51.498;5.392;2023-01-25T18:11:06;102767.7;;;5.23;57.19043
59987;BME280;46181;51.498;5.392;2023-01-25T18:15:34;102755.5;;;5.24;57.2373
59987;BME280;46181;51.498;5.392;2023-01-25T18:20:04;102740.8;;;5.23;57.28027
59987;BME280;46181;51.498;5.392;2023-01-25T18:24:39;102726.4;;;5.2;57.33203
59987;BME280;46181;51.498;5.392;2023-01-25T18:33:34;102713.1;;;5.19;57.31934
59987;BME280;46181;51.498;5.392;2023-01-25T18:38:04;102714;;;5.2;57.44434
59987;BME280;46181;51.498;5.392;2023-01-25T18:42:34;102728;;;5.26;57.47363
59987;BME280;46181;51.498;5.392;2023-01-25T18:47:04;102733;;;5.31;57.52539
59987;BME280;46181;51.498;5.392;2023-01-25T18:51:34;102737;;;5.35;57.4082
59987;BME280;46181;51.498;5.392;2023-01-25T18:56:13;102731;;;5.3;57.45703
59987;BME280;46181;51.498;5.392;2023-01-25T19:00:34;102718.8;;;5.33;57.42773
59987;BME280;46181;51.498;5.392;2023-01-25T19:05:04;102711.7;;;5.33;57.40527
59987;BME280;46181;51.498;5.392;2023-01-25T19:09:34;102706.8;;;5.34;57.42871
59987;BME280;46181;51.498;5.392;2023-01-25T19:14:04;102707.3;;;5.34;57.46191
59987;BME280;46181;51.498;5.392;2023-01-25T19:18:38;102700.5;;;5.31;57.45898
59987;BME280;46181;51.498;5.392;2023-01-25T19:23:05;102692.2;;;5.27;57.4082
59987;BME280;46181;51.498;5.392;2023-01-25T19:27:34;102692.1;;;5.26;57.45117
59987;BME280;46181;51.498;5.392;2023-01-25T19:32:04;102681.9;;;5.24;57.48242
59987;BME280;46181;51.498;5.392;2023-01-25T19:36:35;102677.1;;;5.24;57.53809
59987;BME280;46181;51.498;5.392;2023-01-25T19:41:11;102668.9;;;5.19;57.70898
59987;BME280;46181;51.498;5.392;2023-01-25T19:45:34;102659;;;5.28;57.57617
59987;BME280;46181;51.498;5.392;2023-01-25T19:50:04;102655.7;;;5.27;57.5752
59987;BME280;46181;51.498;5.392;2023-01-25T19:54:34;102663.8;;;5.27;57.46387
59987;BME280;46181;51.498;5.392;2023-01-25T19:59:05;102659.3;;;5.21;57.33398
59987;BME280;46181;51.498;5.392;2023-01-25T20:03:37;102662.3;;;5.16;57.51563
59987;BME280;46181;51.498;5.392;2023-01-25T20:08:04;102657.2;;;5.17;57.58398
59987;BME280;46181;51.498;5.392;2023-01-25T20:12:34;102657;;;5.18;57.51953
59987;BME280;46181;51.498;5.392;2023-01-25T20:17:04;102653.7;;;5.19;57.59766
59987;BME280;46181;51.498;5.392;2023-01-25T20:21:35;102643.9;;;5.18;57.50879
59987;BME280;46181;51.498;5.392;2023-01-25T20:26:10;102633.9;;;5.16;57.63867
59987;BME280;46181;51.498;5.392;2023-01-25T20:30:35;102631.2;;;5.23;57.53516
59987;BME280;46181;51.498;5.392;2023-01-25T20:35:04;102618.3;;;5.2;57.4541
59987;BME280;46181;51.498;5.392;2023-01-25T20:39:34;102612.6;;;5.17;57.38281
59987;BME280;46181;51.498;5.392;2023-01-25T20:44:05;102612.8;;;5.08;57.41699
59987;BME280;46181;51.498;5.392;2023-01-25T20:48:34;102608.5;;;5.06;57.4248
59987;BME280;46181;51.498;5.392;2023-01-25T20:53:04;102597.9;;;4.99;57.39355
59987;BME280;46181;51.498;5.392;2023-01-25T20:57:34;102600;;;4.93;57.54004
59987;BME280;46181;51.498;5.392;2023-01-25T21:02:04;102612.5;;;4.93;57.68457
59987;BME280;46181;51.498;5.392;2023-01-25T21:06:34;102601.8;;;4.94;57.70898
59987;BME280;46181;51.498;5.392;2023-01-25T21:11:05;102587.9;;;4.92;57.65039
59987;BME280;46181;51.498;5.392;2023-01-25T21:15:34;102579.4;;;4.86;57.69727
59987;BME280;46181;51.498;5.392;2023-01-25T21:20:05;102581.3;;;4.84;57.89453
59987;BME280;46181;51.498;5.392;2023-01-25T21:24:34;102578.8;;;4.84;57.7959
59987;BME280;46181;51.498;5.392;2023-01-25T21:29:04;102566.2;;;4.82;58.01465
59987;BME280;46181;51.498;5.392;2023-01-25T21:33:34;102568.1;;;4.84;58.10547
59987;BME280;46181;51.498;5.392;2023-01-25T21:38:04;102568.9;;;4.89;58.13379
59987;BME280;46181;51.498;5.392;2023-01-25T21:42:34;102565.1;;;4.88;58.15625
59987;BME280;46181;51.498;5.392;2023-01-25T21:47:04;102554.9;;;4.89;58.16895
59987;BME280;46181;51.498;5.392;2023-01-25T21:51:34;102544.3;;;4.88;58.20117
59987;BME280;46181;51.498;5.392;2023-01-25T21:56:07;102539.4;;;4.8;58.35645
59987;BME280;46181;51.498;5.392;2023-01-25T22:00:34;102522.7;;;4.8;58.37891
59987;BME280;46181;51.498;5.392;2023-01-25T22:05:04;102524.5;;;4.72;58.53516
59987;BME280;46181;51.498;5.392;2023-01-25T22:09:34;102538.8;;;4.69;58.70801
59987;BME280;46181;51.498;5.392;2023-01-25T22:14:04;102543.8;;;4.71;58.7998
59987;BME280;46181;51.498;5.392;2023-01-25T22:18:35;102545.8;;;4.71;58.85449
59987;BME280;46181;51.498;5.392;2023-01-25T22:23:04;102546.7;;;4.73;58.90137
59987;BME280;46181;51.498;5.392;2023-01-25T22:27:48;102552.4;;;4.68;59.08398
59987;BME280;46181;51.498;5.392;2023-01-25T22:32:04;102559.3;;;4.72;58.87988
59987;BME280;46181;51.498;5.392;2023-01-25T22:36:35;102556;;;4.7;58.90918
59987;BME280;46181;51.498;5.392;2023-01-25T22:41:08;102552.9;;;4.68;58.97363
59987;BME280;46181;51.498;5.392;2023-01-25T22:45:34;102543.9;;;4.68;59.02734
59987;BME280;46181;51.498;5.392;2023-01-25T22:50:04;102550;;;4.69;59.0957
59987;BME280;46181;51.498;5.392;2023-01-25T22:54:34;102541.5;;;4.72;59.15625
59987;BME280;46181;51.498;5.392;2023-01-25T22:59:04;102532.1;;;4.72;59.21289
59987;BME280;46181;51.498;5.392;2023-01-25T23:03:34;102533.8;;;4.72;59.22363
59987;BME280;46181;51.498;5.392;2023-01-25T23:08:04;102533.1;;;4.71;59.28809
59987;BME280;46181;51.498;5.392;2023-01-25T23:12:34;102524.5;;;4.68;59.38379
59987;BME280;46181;51.498;5.392;2023-01-25T23:17:04;102521.9;;;4.66;59.51367
59987;BME280;46181;51.498;5.392;2023-01-25T23:21:35;102518.2;;;4.64;59.5459
59987;BME280;46181;51.498;5.392;2023-01-25T23:26:04;102510;;;4.61;59.61719
59987;BME280;46181;51.498;5.392;2023-01-25T23:30:34;102498.6;;;4.61;59.81836
59987;BME280;46181;51.498;5.392;2023-01-25T23:35:05;102497.5;;;4.6;59.88379
59987;BME280;46181;51.498;5.392;2023-01-25T23:39:34;102498.7;;;4.56;60.0332
59987;BME280;46181;51.498;5.392;2023-01-25T23:44:04;102488.1;;;4.59;60.07031
59987;BME280;46181;51.498;5.392;2023-01-25T23:48:34;102478.9;;;4.61;60.23828